Flight Number: AVA4001 Duration: 0:45
Departure: Tioman Island (WMBT) at 01:00 Distance: 147.095 Nm
Arrival: Sepang Kuala Lumpur Intl (WMKK) at 01:45 Equipment: ATR72

Weather Information
404 Not Found

Not Found

The requested URL /data/observations/metar/decoded/WMBT.TXT was not found on this server.


Sunrise: 23:04 Sunset: 11:11 (UTC)

Sepang/KL International Airport, Malaysia (WMKK) 02-44N 101-42E 22M Aug 14, 2020 - 06:30 PM EDT / 2020.08.14 2230 UTC
Wind: Variable at 2 MPH (2 KT):0
Visibility: 5 mile(s):0
Sky conditions: mostly clear Temperature: 78 F (26 C) Dew Point: 75 F (24 C) Relative Humidity: 88% Pressure (altimeter): 29.77 in. Hg (1008 hPa)
ob: WMKK 142230Z VRB02KT 9000 FEW008 26/24 Q1008 NOSIG cycle: 22
Sunrise: 23:13 Sunset: 11:21 (UTC)

TAF:2020/08/14 18:08 TAF WMKK 141700Z 1418/1600 15005KT 9999 FEW010 BECMG 1419/1421 VRB02KT FEW008 FEW017CB PROB30 TEMPO 1507/1511 17007KT 4000 TSRA FEW010 FEW016CB SCT018

This route has never been flown.

Route map